ITY115 LIML-LIRF
Flight info
| Callsign | ITY115 |
|---|---|
| Flight time | 0h 46m |
| Altitude | 33000 |
| Route | TOVSA7AXEKPAL6A/35 EKPAL DCT BEROK/N0328F190 L153 OLKIS DCT MAREL DCT XIBIL DCT GOLPO DCT |
| Aircraft | A20N/M-SDE2E3FGHIRWXY/LB1 |
Departure
| Time | 2026-02-19 14:17 |
|---|---|
| Airport | Milano Linate Airport (LIML) |
Arrival
| Time | 2026-02-19 15:04 |
|---|---|
| Airport | Rome–Fiumicino Leonardo da Vinci International Airport (LIRF) |
| Time | Latitude | Longitude | Altitude | Speed | Heading |
|---|---|---|---|---|---|
| 2026-02-19 13:28 | 45.45009 | 9.27973 | 359 ft | 0 kts | 271° |
| 2026-02-19 14:12 | 45.45000 | 9.27916 | 362 ft | 13 kts | 236° |
| 2026-02-19 14:12 | 45.44910 | 9.27917 | 362 ft | 13 kts | 164° |
| 2026-02-19 14:13 | 45.44842 | 9.27941 | 365 ft | 8 kts | 171° |
| 2026-02-19 14:13 | 45.44762 | 9.27952 | 358 ft | 20 kts | 175° |
| 2026-02-19 14:13 | 45.44591 | 9.27969 | 359 ft | 27 kts | 176° |
| 2026-02-19 14:13 | 45.44498 | 9.27978 | 362 ft | 17 kts | 176° |
| 2026-02-19 14:14 | 45.44340 | 9.27996 | 361 ft | 27 kts | 175° |
| 2026-02-19 14:14 | 45.44171 | 9.28015 | 355 ft | 24 kts | 175° |
| 2026-02-19 14:14 | 45.43992 | 9.28033 | 354 ft | 27 kts | 176° |
| 2026-02-19 14:14 | 45.43819 | 9.28052 | 359 ft | 22 kts | 175° |
| 2026-02-19 14:15 | 45.43677 | 9.28068 | 350 ft | 16 kts | 175° |
| 2026-02-19 14:15 | 45.43556 | 9.28081 | 349 ft | 19 kts | 175° |
| 2026-02-19 14:15 | 45.43469 | 9.28071 | 353 ft | 11 kts | 205° |
| 2026-02-19 14:15 | 45.43446 | 9.27991 | 351 ft | 7 kts | 263° |
| 2026-02-19 14:16 | 45.43444 | 9.27962 | 348 ft | 0 kts | 267° |
| 2026-02-19 14:16 | 45.43444 | 9.27889 | 352 ft | 15 kts | 276° |
| 2026-02-19 14:16 | 45.43529 | 9.27813 | 354 ft | 18 kts | 355° |
| 2026-02-19 14:17 | 45.43815 | 9.27780 | 358 ft | 79 kts | 355° |
| 2026-02-19 14:17 | 45.44609 | 9.27687 | 376 ft | 144 kts | 353° |
| 2026-02-19 14:17 | 45.45619 | 9.27620 | 975 ft | 148 kts | 352° |
| 2026-02-19 14:17 | 45.46669 | 9.27484 | 1758 ft | 154 kts | 349° |
| 2026-02-19 14:18 | 45.47745 | 9.27308 | 2562 ft | 162 kts | 350° |
| 2026-02-19 14:18 | 45.48896 | 9.27114 | 3050 ft | 173 kts | 351° |
| 2026-02-19 14:18 | 45.50164 | 9.27182 | 3358 ft | 198 kts | 16° |
| 2026-02-19 14:18 | 45.51345 | 9.28414 | 3667 ft | 229 kts | 51° |
| 2026-02-19 14:19 | 45.51945 | 9.30644 | 4141 ft | 257 kts | 84° |
| 2026-02-19 14:19 | 45.51676 | 9.33253 | 4787 ft | 278 kts | 113° |
| 2026-02-19 14:19 | 45.50523 | 9.35456 | 5809 ft | 281 kts | 141° |
| 2026-02-19 14:19 | 45.48779 | 9.36717 | 6771 ft | 287 kts | 165° |
| 2026-02-19 14:20 | 45.42581 | 9.38081 | 9456 ft | 312 kts | 175° |
| 2026-02-19 14:20 | 45.40397 | 9.38426 | 10304 ft | 318 kts | 178° |
| 2026-02-19 14:21 | 45.38141 | 9.38562 | 10745 ft | 340 kts | 178° |
| 2026-02-19 14:21 | 45.35741 | 9.39267 | 11110 ft | 364 kts | 161° |
| 2026-02-19 14:21 | 45.33435 | 9.40891 | 11829 ft | 373 kts | 148° |
| 2026-02-19 14:21 | 45.31329 | 9.43031 | 12679 ft | 378 kts | 141° |
| 2026-02-19 14:22 | 45.29304 | 9.45459 | 13504 ft | 383 kts | 137° |
| 2026-02-19 14:22 | 45.27318 | 9.48001 | 14303 ft | 385 kts | 136° |
| 2026-02-19 14:22 | 45.25335 | 9.50577 | 15136 ft | 387 kts | 136° |
| 2026-02-19 14:22 | 45.23334 | 9.53172 | 15933 ft | 390 kts | 136° |
| 2026-02-19 14:23 | 45.21303 | 9.55680 | 16696 ft | 394 kts | 144° |
| 2026-02-19 14:23 | 45.18858 | 9.57438 | 17453 ft | 397 kts | 163° |
| 2026-02-19 14:23 | 45.16145 | 9.58155 | 18139 ft | 399 kts | 175° |
| 2026-02-19 14:23 | 45.13401 | 9.58813 | 18827 ft | 402 kts | 167° |
| 2026-02-19 14:24 | 45.10741 | 9.60089 | 19524 ft | 405 kts | 157° |
| 2026-02-19 14:24 | 45.05548 | 9.63332 | 21000 ft | 407 kts | 158° |
| 2026-02-19 14:24 | 45.02960 | 9.64969 | 21686 ft | 410 kts | 156° |
| 2026-02-19 14:25 | 45.00361 | 9.66683 | 22355 ft | 412 kts | 155° |
| 2026-02-19 14:25 | 44.97783 | 9.68395 | 23014 ft | 415 kts | 155° |
| 2026-02-19 14:25 | 44.95166 | 9.70127 | 23626 ft | 416 kts | 156° |
| 2026-02-19 14:25 | 44.92517 | 9.71870 | 24038 ft | 422 kts | 156° |
| 2026-02-19 14:26 | 44.89861 | 9.73607 | 24705 ft | 420 kts | 156° |
| 2026-02-19 14:26 | 44.87206 | 9.75341 | 25212 ft | 423 kts | 157° |
| 2026-02-19 14:26 | 44.84522 | 9.77086 | 25790 ft | 423 kts | 156° |
| 2026-02-19 14:26 | 44.81837 | 9.78833 | 26267 ft | 427 kts | 157° |
| 2026-02-19 14:27 | 44.79140 | 9.80585 | 26736 ft | 429 kts | 157° |
| 2026-02-19 14:27 | 44.76422 | 9.82349 | 27219 ft | 431 kts | 158° |
| 2026-02-19 14:27 | 44.73680 | 9.84129 | 27557 ft | 436 kts | 158° |
| 2026-02-19 14:27 | 44.70940 | 9.85976 | 28024 ft | 439 kts | 154° |
| 2026-02-19 14:28 | 44.68338 | 9.88251 | 28508 ft | 442 kts | 147° |
| 2026-02-19 14:28 | 44.63783 | 9.94054 | 29357 ft | 450 kts | 136° |
| 2026-02-19 14:28 | 44.61605 | 9.97235 | 29738 ft | 453 kts | 137° |
| 2026-02-19 14:29 | 44.59409 | 10.00426 | 30039 ft | 456 kts | 137° |
| 2026-02-19 14:29 | 44.57194 | 10.03630 | 30329 ft | 459 kts | 137° |
| 2026-02-19 14:29 | 44.54959 | 10.06853 | 30624 ft | 462 kts | 137° |
| 2026-02-19 14:29 | 44.52703 | 10.10100 | 30909 ft | 465 kts | 137° |
| 2026-02-19 14:30 | 44.50390 | 10.13268 | 31277 ft | 463 kts | 142° |
| 2026-02-19 14:30 | 44.47842 | 10.15999 | 31686 ft | 459 kts | 150° |
| 2026-02-19 14:30 | 44.45096 | 10.18220 | 32069 ft | 455 kts | 158° |
| 2026-02-19 14:30 | 44.42207 | 10.19988 | 32433 ft | 453 kts | 161° |
| 2026-02-19 14:31 | 44.39313 | 10.21692 | 32573 ft | 448 kts | 161° |
| 2026-02-19 14:31 | 44.33615 | 10.25076 | 32593 ft | 445 kts | 161° |
| 2026-02-19 14:32 | 44.27906 | 10.28462 | 32578 ft | 445 kts | 161° |
| 2026-02-19 14:32 | 44.19350 | 10.33423 | 32598 ft | 443 kts | 165° |
| 2026-02-19 14:33 | 44.13391 | 10.35366 | 32592 ft | 436 kts | 177° |
| 2026-02-19 14:33 | 44.07376 | 10.35909 | 32597 ft | 432 kts | 181° |
| 2026-02-19 14:34 | 44.01374 | 10.36356 | 32615 ft | 432 kts | 181° |
| 2026-02-19 14:34 | 43.95368 | 10.36836 | 32631 ft | 433 kts | 179° |
| 2026-02-19 14:35 | 43.89441 | 10.38377 | 32636 ft | 440 kts | 168° |
| 2026-02-19 14:35 | 43.83606 | 10.40975 | 32645 ft | 441 kts | 167° |
| 2026-02-19 14:36 | 43.74834 | 10.44845 | 32661 ft | 442 kts | 167° |
| 2026-02-19 14:37 | 43.68968 | 10.47417 | 32661 ft | 441 kts | 167° |
| 2026-02-19 14:37 | 43.63133 | 10.49970 | 32220 ft | 437 kts | 167° |
| 2026-02-19 14:37 | 43.60242 | 10.51233 | 31583 ft | 436 kts | 167° |
| 2026-02-19 14:38 | 43.57340 | 10.52498 | 30839 ft | 436 kts | 167° |
| 2026-02-19 14:38 | 43.54447 | 10.53757 | 30112 ft | 435 kts | 167° |
| 2026-02-19 14:38 | 43.51569 | 10.55012 | 29516 ft | 430 kts | 167° |
| 2026-02-19 14:38 | 43.48768 | 10.56232 | 28855 ft | 426 kts | 167° |
| 2026-02-19 14:39 | 43.45957 | 10.57453 | 28167 ft | 422 kts | 167° |
| 2026-02-19 14:39 | 43.43197 | 10.58655 | 27876 ft | 408 kts | 168° |
| 2026-02-19 14:39 | 43.40517 | 10.59822 | 27354 ft | 401 kts | 168° |
| 2026-02-19 14:39 | 43.37867 | 10.60969 | 26712 ft | 398 kts | 168° |
| 2026-02-19 14:40 | 43.35237 | 10.62103 | 26094 ft | 394 kts | 168° |
| 2026-02-19 14:40 | 43.30050 | 10.64342 | 24896 ft | 386 kts | 168° |
| 2026-02-19 14:40 | 43.27527 | 10.65620 | 24282 ft | 387 kts | 162° |
| 2026-02-19 14:41 | 43.25112 | 10.67247 | 23709 ft | 386 kts | 159° |
| 2026-02-19 14:41 | 43.22725 | 10.68910 | 23102 ft | 383 kts | 159° |
| 2026-02-19 14:41 | 43.20356 | 10.70552 | 22388 ft | 381 kts | 159° |
| 2026-02-19 14:41 | 43.17987 | 10.72185 | 21679 ft | 379 kts | 159° |
| 2026-02-19 14:42 | 43.15634 | 10.73805 | 21013 ft | 378 kts | 158° |
| 2026-02-19 14:42 | 43.13290 | 10.75415 | 20341 ft | 376 kts | 158° |
| 2026-02-19 14:42 | 43.10954 | 10.77021 | 19682 ft | 374 kts | 158° |
| 2026-02-19 14:42 | 43.08631 | 10.78617 | 19047 ft | 373 kts | 158° |
| 2026-02-19 14:43 | 43.06317 | 10.80204 | 18412 ft | 372 kts | 158° |
| 2026-02-19 14:43 | 43.04035 | 10.81768 | 17788 ft | 371 kts | 158° |
| 2026-02-19 14:43 | 43.01733 | 10.83345 | 17174 ft | 369 kts | 158° |
| 2026-02-19 14:43 | 42.99415 | 10.84932 | 16558 ft | 367 kts | 157° |
| 2026-02-19 14:44 | 42.97172 | 10.86467 | 15959 ft | 365 kts | 157° |
| 2026-02-19 14:44 | 42.92653 | 10.89554 | 14810 ft | 361 kts | 157° |
| 2026-02-19 14:44 | 42.90413 | 10.91083 | 14248 ft | 359 kts | 157° |
| 2026-02-19 14:45 | 42.88194 | 10.92596 | 13749 ft | 355 kts | 156° |
| 2026-02-19 14:45 | 42.85979 | 10.94104 | 13175 ft | 354 kts | 156° |
| 2026-02-19 14:45 | 42.83782 | 10.95601 | 12623 ft | 351 kts | 156° |
| 2026-02-19 14:45 | 42.81639 | 10.97072 | 12454 ft | 339 kts | 154° |
| 2026-02-19 14:46 | 42.79740 | 10.98918 | 12176 ft | 334 kts | 140° |
| 2026-02-19 14:46 | 42.78255 | 11.01348 | 11646 ft | 337 kts | 125° |
| 2026-02-19 14:46 | 42.76995 | 11.04055 | 11121 ft | 338 kts | 124° |
| 2026-02-19 14:46 | 42.75747 | 11.06738 | 10794 ft | 332 kts | 124° |
| 2026-02-19 14:47 | 42.74512 | 11.09376 | 10703 ft | 338 kts | 124° |
| 2026-02-19 14:47 | 42.73244 | 11.12069 | 10694 ft | 336 kts | 124° |
| 2026-02-19 14:47 | 42.71981 | 11.14743 | 10694 ft | 336 kts | 124° |
| 2026-02-19 14:47 | 42.71142 | 11.16517 | 10694 ft | 336 kts | 124° |
| 2026-02-19 14:48 | 42.69873 | 11.19198 | 10691 ft | 337 kts | 125° |
| 2026-02-19 14:48 | 42.67336 | 11.24551 | 10677 ft | 337 kts | 124° |
| 2026-02-19 14:48 | 42.66080 | 11.27196 | 10686 ft | 329 kts | 124° |
| 2026-02-19 14:49 | 42.64840 | 11.29807 | 10695 ft | 330 kts | 125° |
| 2026-02-19 14:49 | 42.63594 | 11.32432 | 10682 ft | 329 kts | 125° |
| 2026-02-19 14:49 | 42.62339 | 11.35028 | 10686 ft | 329 kts | 130° |
| 2026-02-19 14:49 | 42.60742 | 11.37406 | 10690 ft | 349 kts | 137° |
| 2026-02-19 14:50 | 42.59054 | 11.39780 | 10691 ft | 348 kts | 137° |
| 2026-02-19 14:50 | 42.57362 | 11.42139 | 10687 ft | 349 kts | 137° |
| 2026-02-19 14:50 | 42.55664 | 11.44487 | 10688 ft | 349 kts | 137° |
| 2026-02-19 14:50 | 42.53965 | 11.46824 | 10640 ft | 347 kts | 137° |
| 2026-02-19 14:51 | 42.52269 | 11.49150 | 10378 ft | 344 kts | 137° |
| 2026-02-19 14:51 | 42.50652 | 11.51370 | 10211 ft | 327 kts | 138° |
| 2026-02-19 14:51 | 42.49103 | 11.53497 | 10039 ft | 307 kts | 138° |
| 2026-02-19 14:51 | 42.47632 | 11.55513 | 9690 ft | 296 kts | 138° |
| 2026-02-19 14:52 | 42.46184 | 11.57487 | 9069 ft | 294 kts | 138° |
| 2026-02-19 14:52 | 42.43308 | 11.61402 | 7979 ft | 292 kts | 137° |
| 2026-02-19 14:52 | 42.41889 | 11.63338 | 7694 ft | 286 kts | 138° |
| 2026-02-19 14:53 | 42.40489 | 11.65249 | 7240 ft | 287 kts | 139° |
| 2026-02-19 14:53 | 42.39089 | 11.67154 | 6869 ft | 284 kts | 138° |
| 2026-02-19 14:53 | 42.37698 | 11.69045 | 6522 ft | 282 kts | 138° |
| 2026-02-19 14:53 | 42.36320 | 11.70921 | 6155 ft | 280 kts | 139° |
| 2026-02-19 14:54 | 42.34966 | 11.72768 | 6015 ft | 283 kts | 139° |
| 2026-02-19 14:54 | 42.33571 | 11.74661 | 5973 ft | 283 kts | 139° |
| 2026-02-19 14:54 | 42.32186 | 11.76542 | 5973 ft | 283 kts | 139° |
| 2026-02-19 14:54 | 42.30786 | 11.78440 | 5962 ft | 285 kts | 139° |
| 2026-02-19 14:55 | 42.29399 | 11.80318 | 5833 ft | 280 kts | 139° |
| 2026-02-19 14:55 | 42.28018 | 11.82182 | 5460 ft | 280 kts | 138° |
| 2026-02-19 14:55 | 42.26638 | 11.84050 | 5082 ft | 279 kts | 139° |
| 2026-02-19 14:55 | 42.25272 | 11.85899 | 4983 ft | 280 kts | 138° |
| 2026-02-19 14:56 | 42.23882 | 11.87778 | 4974 ft | 282 kts | 137° |
| 2026-02-19 14:56 | 42.21091 | 11.91546 | 4975 ft | 287 kts | 138° |
| 2026-02-19 14:56 | 42.19699 | 11.93425 | 4975 ft | 281 kts | 139° |
| 2026-02-19 14:57 | 42.18327 | 11.95274 | 4932 ft | 285 kts | 139° |
| 2026-02-19 14:57 | 42.16916 | 11.97177 | 4925 ft | 285 kts | 139° |
| 2026-02-19 14:57 | 42.15517 | 11.99064 | 4915 ft | 282 kts | 139° |
| 2026-02-19 14:57 | 42.14139 | 12.00926 | 4903 ft | 280 kts | 139° |
| 2026-02-19 14:58 | 42.12745 | 12.02803 | 4895 ft | 285 kts | 138° |
| 2026-02-19 14:58 | 42.11356 | 12.04672 | 4890 ft | 279 kts | 137° |
| 2026-02-19 14:58 | 42.10034 | 12.06562 | 4711 ft | 276 kts | 136° |
| 2026-02-19 14:58 | 42.08732 | 12.08488 | 4304 ft | 278 kts | 135° |
| 2026-02-19 14:59 | 42.07437 | 12.10414 | 3958 ft | 276 kts | 135° |
| 2026-02-19 14:59 | 42.06168 | 12.12298 | 3807 ft | 266 kts | 135° |
| 2026-02-19 14:59 | 42.04946 | 12.14105 | 3696 ft | 256 kts | 136° |
| 2026-02-19 14:59 | 42.03768 | 12.15840 | 3607 ft | 246 kts | 136° |
| 2026-02-19 15:00 | 42.02625 | 12.17484 | 3509 ft | 235 kts | 141° |
| 2026-02-19 15:00 | 41.99941 | 12.19630 | 3228 ft | 221 kts | 165° |
| 2026-02-19 15:00 | 41.98487 | 12.20297 | 2929 ft | 220 kts | 168° |
| 2026-02-19 15:01 | 41.97026 | 12.20909 | 2629 ft | 221 kts | 167° |
| 2026-02-19 15:01 | 41.95565 | 12.21526 | 2320 ft | 219 kts | 169° |
| 2026-02-19 15:01 | 41.94107 | 12.22141 | 2019 ft | 219 kts | 169° |
| 2026-02-19 15:01 | 41.92679 | 12.22741 | 1723 ft | 216 kts | 169° |
| 2026-02-19 15:02 | 41.91258 | 12.23344 | 1476 ft | 208 kts | 169° |
| 2026-02-19 15:02 | 41.89930 | 12.23909 | 1169 ft | 191 kts | 171° |
| 2026-02-19 15:02 | 41.88720 | 12.24415 | 910 ft | 173 kts | 169° |
| 2026-02-19 15:02 | 41.87633 | 12.24872 | 676 ft | 155 kts | 169° |
| 2026-02-19 15:03 | 41.86620 | 12.25293 | 470 ft | 149 kts | 167° |
| 2026-02-19 15:03 | 41.85668 | 12.25694 | 272 ft | 139 kts | 169° |
| 2026-02-19 15:03 | 41.84754 | 12.26093 | 111 ft | 134 kts | 168° |
| 2026-02-19 15:03 | 41.83909 | 12.26445 | 19 ft | 119 kts | 168° |
| 2026-02-19 15:04 | 41.83360 | 12.26669 | 13 ft | 20 kts | 161° |
| 2026-02-19 15:04 | 41.83166 | 12.26643 | 12 ft | 16 kts | 192° |
| 2026-02-19 15:04 | 41.83070 | 12.26615 | 14 ft | 0 kts | 192° |
| 2026-02-19 15:05 | 41.83068 | 12.26615 | 14 ft | 0 kts | 192° |
| 2026-02-19 15:05 | 41.83032 | 12.26604 | 14 ft | 13 kts | 192° |
| 2026-02-19 15:06 | 41.82919 | 12.26570 | 14 ft | 19 kts | 188° |
| 2026-02-19 15:06 | 41.82813 | 12.26578 | 14 ft | 10 kts | 168° |
| 2026-02-19 15:06 | 41.82728 | 12.26603 | 14 ft | 14 kts | 165° |
| 2026-02-19 15:06 | 41.82628 | 12.26653 | 16 ft | 16 kts | 162° |
| 2026-02-19 15:07 | 41.82511 | 12.26701 | 15 ft | 19 kts | 163° |
| 2026-02-19 15:07 | 41.82367 | 12.26759 | 13 ft | 23 kts | 163° |
| 2026-02-19 15:07 | 41.82227 | 12.26818 | 10 ft | 18 kts | 161° |
| 2026-02-19 15:07 | 41.82100 | 12.26876 | 12 ft | 21 kts | 162° |
| 2026-02-19 15:08 | 41.81964 | 12.26933 | 13 ft | 13 kts | 163° |
| 2026-02-19 15:08 | 41.81741 | 12.26913 | 16 ft | 19 kts | 189° |
| 2026-02-19 15:08 | 41.81607 | 12.26943 | 20 ft | 15 kts | 162° |
| 2026-02-19 15:09 | 41.81470 | 12.26998 | 17 ft | 22 kts | 163° |
| 2026-02-19 15:09 | 41.81390 | 12.27031 | 19 ft | 14 kts | 163° |
| 2026-02-19 15:09 | 41.81338 | 12.27052 | 17 ft | 2 kts | 162° |
| 2026-02-19 15:09 | 41.81266 | 12.27083 | 15 ft | 19 kts | 162° |
| 2026-02-19 15:10 | 41.81225 | 12.27100 | 15 ft | 0 kts | 163° |
| 2026-02-19 15:10 | 41.81193 | 12.27114 | 14 ft | 13 kts | 163° |
| 2026-02-19 15:10 | 41.81084 | 12.27159 | 13 ft | 18 kts | 162° |
| 2026-02-19 15:10 | 41.80969 | 12.27209 | 9 ft | 14 kts | 162° |
| 2026-02-19 15:11 | 41.80885 | 12.27243 | 11 ft | 10 kts | 163° |
| 2026-02-19 15:11 | 41.80817 | 12.27272 | 13 ft | 5 kts | 162° |
| 2026-02-19 15:11 | 41.80836 | 12.27264 | 11 ft | 7 kts | 162° |
| 2026-02-19 15:11 | 41.80843 | 12.27261 | 10 ft | 0 kts | 162° |
| 2026-02-19 15:12 | 41.80844 | 12.27261 | 10 ft | 0 kts | 162° |
| 2026-02-19 15:12 | 41.80835 | 12.27264 | 11 ft | 0 kts | 162° |
| 2026-02-19 15:13 | 41.80771 | 12.27289 | 12 ft | 13 kts | 170° |
| 2026-02-19 15:13 | 41.80705 | 12.27279 | 14 ft | 7 kts | 203° |
| 2026-02-19 15:13 | 41.80658 | 12.27229 | 13 ft | 11 kts | 228° |
| 2026-02-19 15:13 | 41.80627 | 12.27129 | 14 ft | 13 kts | 252° |
| 2026-02-19 15:14 | 41.80604 | 12.27035 | 13 ft | 8 kts | 250° |
| 2026-02-19 15:14 | 41.80585 | 12.26967 | 15 ft | 8 kts | 249° |
| 2026-02-19 15:14 | 41.80558 | 12.26874 | 15 ft | 17 kts | 250° |
| 2026-02-19 15:14 | 41.80521 | 12.26738 | 13 ft | 15 kts | 249° |
| 2026-02-19 15:15 | 41.80484 | 12.26605 | 14 ft | 15 kts | 249° |
| 2026-02-19 15:15 | 41.80462 | 12.26524 | 14 ft | 8 kts | 250° |
| 2026-02-19 15:15 | 41.80437 | 12.26432 | 13 ft | 14 kts | 248° |
| 2026-02-19 15:15 | 41.80358 | 12.26372 | 15 ft | 10 kts | 168° |
| 2026-02-19 15:16 | 41.80317 | 12.26392 | 13 ft | 5 kts | 161° |
| 2026-02-19 15:16 | 41.80211 | 12.26404 | 16 ft | 7 kts | 199° |
| 2026-02-19 15:16 | 41.80138 | 12.26359 | 16 ft | 16 kts | 205° |
| 2026-02-19 15:17 | 41.80045 | 12.26301 | 18 ft | 14 kts | 205° |
| 2026-02-19 15:17 | 41.79955 | 12.26247 | 21 ft | 14 kts | 204° |
| 2026-02-19 15:17 | 41.79919 | 12.26226 | 19 ft | 0 kts | 204° |
| 2026-02-19 15:17 | 41.79898 | 12.26213 | 19 ft | 9 kts | 204° |
| 2026-02-19 15:18 | 41.79834 | 12.26162 | 20 ft | 10 kts | 230° |
| 2026-02-19 15:18 | 41.79832 | 12.26080 | 20 ft | 10 kts | 293° |
| 2026-02-19 15:18 | 41.79868 | 12.25978 | 18 ft | 13 kts | 296° |
| 2026-02-19 15:18 | 41.79889 | 12.25918 | 19 ft | 6 kts | 295° |
| 2026-02-19 15:19 | 41.79895 | 12.25901 | 18 ft | 0 kts | 296° |
| 2026-02-19 15:19 | 41.79919 | 12.25871 | 18 ft | 7 kts | 336° |
| 2026-02-19 15:19 | 41.79925 | 12.25869 | 18 ft | 0 kts | 349° |
| 2026-02-19 15:20 | 41.79972 | 12.25884 | 17 ft | 7 kts | 20° |
| 2026-02-19 15:20 | 41.80039 | 12.25923 | 18 ft | 14 kts | 24° |
| 2026-02-19 15:21 | 41.80118 | 12.25973 | 16 ft | 10 kts | 25° |
| 2026-02-19 15:21 | 41.80156 | 12.25997 | 15 ft | 5 kts | 26° |
| 2026-02-19 15:21 | 41.80191 | 12.26053 | 14 ft | 9 kts | 85° |
| 2026-02-19 15:21 | 41.80190 | 12.26060 | 14 ft | 0 kts | 98° |
| 2026-02-19 15:22 | 41.80118 | 12.26082 | 17 ft | 0 kts | 206° |
| 2026-02-19 15:22 | 41.80099 | 12.26071 | 16 ft | 0 kts | 206° |